Hornsby Bend, Texas
Current Conditions -  °F | °C
As of 12:53 PM on Friday 21 Nov 2014 (Local Time) from KAUS Reporting Station
Broken Clouds Broken Clouds  
Wind Chill: 72°   Ceiling: 2800
Heat Index: 72°   Visibility: 10mi
Dew Point: 66°   Wind: 10mph
Humidity: 81%   Direction: 190°S
Pressure: 30.05"   Gusts: NA
Location:  30.2291°N, 97.5973°W
Report Text: KAUS 211853Z 19009KT 10SM FEW016 BKN028 BKN039 22/19 A3005 RMK AO2 RAB04E19B37E45 SLP170 P0001 T02220189
Loading
Personal Weather Stations






























Interactive Weather Map New forecast layout! Learn more

10-Day Weather Forecast

Advertisements
Track Severe Weather on mobile